Time;durP1;ratioP1;P1;durP2;ratioP2;P2;SDS_P1;SDS_P2;PMS_P1;PMS_P2;Temp;Humidity;BMP_temperature;BMP_pressure;BME280_temperature;BME280_humidity;BME280_pressure;Samples;Min_cycle;Max_cycle;Signal;HPM_P1;HPM_P2
2022/11/09 00:02:24;;;;;;;0.10;0.10;;;12.50;99.90;;;;;;4950470;28;20198;-90
2022/11/09 00:04:49;;;;;;;0.10;0.10;;;12.50;99.90;;;;;;4944751;28;20226;-89
2022/11/09 00:07:15;;;;;;;0.10;0.10;;;12.40;99.90;;;;;;4947175;28;20186;-88
2022/11/09 00:09:40;;;;;;;0.20;0.20;;;12.40;99.90;;;;;;4947107;28;20548;-90
2022/11/09 00:12:06;;;;;;;0.20;0.20;;;12.50;99.90;;;;;;4948488;28;20620;-91
2022/11/09 00:14:32;;;;;;;0.10;0.10;;;12.50;99.90;;;;;;4945282;28;20198;-91
2022/11/09 00:16:58;;;;;;;0.13;0.13;;;12.50;99.90;;;;;;4946164;28;20191;-91
2022/11/09 00:19:24;;;;;;;0.10;0.10;;;12.40;99.90;;;;;;4952480;28;20500;-88
2022/11/09 00:21:49;;;;;;;0.13;0.13;;;12.50;99.90;;;;;;4943026;28;20182;-88
2022/11/09 00:24:15;;;;;;;0.20;0.20;;;12.50;99.90;;;;;;4947221;28;20221;-90
2022/11/09 00:26:41;;;;;;;0.10;0.10;;;12.60;99.90;;;;;;4946842;28;20613;-90
2022/11/09 00:29:07;;;;;;;0.20;0.20;;;12.50;99.90;;;;;;4944039;28;20199;-88
2022/11/09 00:31:33;;;;;;;0.20;0.20;;;12.50;99.90;;;;;;4948606;28;20194;-88
2022/11/09 00:33:59;;;;;;;0.10;0.10;;;12.50;99.90;;;;;;4950009;28;20198;-87
2022/11/09 00:36:25;;;;;;;0.10;0.10;;;12.50;99.90;;;;;;4949487;28;20451;-91
2022/11/09 00:38:53;;;;;;;0.20;0.20;;;12.60;99.90;;;;;;4948007;28;20234;-89
2022/11/09 00:41:19;;;;;;;0.20;0.20;;;12.60;99.90;;;;;;4946949;28;20460;-88
2022/11/09 00:43:45;;;;;;;0.20;0.20;;;12.60;99.90;;;;;;4952460;28;20493;-91
2022/11/09 00:46:10;;;;;;;0.20;0.20;;;12.70;99.90;;;;;;4945716;28;20877;-92
2022/11/09 00:48:36;;;;;;;0.13;0.10;;;12.70;99.90;;;;;;4949161;28;20194;-90
2022/11/09 00:51:02;;;;;;;0.10;0.10;;;12.60;99.90;;;;;;4940394;28;20944;-87
2022/11/09 00:53:28;;;;;;;0.10;0.10;;;12.60;99.90;;;;;;4949374;29;20187;-87
2022/11/09 00:55:54;;;;;;;0.10;0.10;;;12.70;99.90;;;;;;4948638;28;20213;-90
2022/11/09 00:58:20;;;;;;;0.10;0.10;;;12.60;99.90;;;;;;4949584;28;20446;-90
2022/11/09 01:00:45;;;;;;;0.10;0.10;;;12.60;99.90;;;;;;4952762;28;20187;-91
2022/11/09 01:03:11;;;;;;;0.20;0.20;;;12.60;99.90;;;;;;4947344;28;20795;-89
2022/11/09 01:05:38;;;;;;;0.10;0.10;;;12.60;99.90;;;;;;4948082;28;20199;-89
2022/11/09 01:08:04;;;;;;;0.20;0.20;;;12.60;99.90;;;;;;4940276;28;20289;-90
2022/11/09 01:10:30;;;;;;;0.20;0.20;;;12.50;99.90;;;;;;4949542;28;20941;-88
2022/11/09 01:12:55;;;;;;;0.10;0.10;;;12.50;99.90;;;;;;4935866;28;20446;-89
2022/11/09 01:15:21;;;;;;;0.10;0.10;;;12.50;99.90;;;;;;4952676;28;20281;-91
2022/11/09 01:17:47;;;;;;;0.10;0.10;;;12.50;99.90;;;;;;4939970;28;20191;-91
2022/11/09 01:20:13;;;;;;;0.20;0.20;;;12.50;99.90;;;;;;4947149;28;20577;-89
2022/11/09 01:22:39;;;;;;;0.20;0.20;;;12.40;99.90;;;;;;4950358;28;20281;-90
2022/11/09 01:25:05;;;;;;;0.20;0.20;;;12.40;99.90;;;;;;4946825;28;20462;-89
2022/11/09 01:27:31;;;;;;;0.20;0.20;;;12.30;99.90;;;;;;4968032;28;20187;-91
2022/11/09 01:29:58;;;;;;;0.20;0.20;;;12.30;99.90;;;;;;4949439;28;20446;-91
2022/11/09 01:32:24;;;;;;;0.20;0.20;;;12.30;99.90;;;;;;4946137;28;20478;-90
2022/11/09 01:34:49;;;;;;;0.20;0.20;;;12.30;99.90;;;;;;4949997;29;20442;-90
2022/11/09 01:37:15;;;;;;;0.20;0.20;;;12.20;99.90;;;;;;4948465;28;20241;-92
2022/11/09 01:39:40;;;;;;;0.10;0.10;;;12.20;99.90;;;;;;4947360;28;20222;-92
2022/11/09 01:42:06;;;;;;;0.10;0.10;;;12.10;99.90;;;;;;4945841;28;20201;-91
2022/11/09 01:44:33;;;;;;;0.10;0.10;;;12.10;99.90;;;;;;4949660;28;20240;-91
2022/11/09 01:47:04;;;;;;;0.20;0.20;;;12.10;99.90;;;;;;4937601;28;20545;-92
2022/11/09 01:49:42;;;;;;;0.20;0.20;;;12.10;99.90;;;;;;4951392;28;20503;-89
2022/11/09 01:52:49;;;;;;;0.10;0.10;;;12.20;99.90;;;;;;4945937;28;20446;-90
2022/11/09 01:55:19;;;;;;;0.10;0.10;;;12.20;99.90;;;;;;4923905;28;20943;-91
2022/11/09 01:57:52;;;;;;;0.10;0.10;;;12.20;99.90;;;;;;4948179;28;20820;-89
2022/11/09 02:00:18;;;;;;;0.20;0.20;;;12.10;99.90;;;;;;4945747;28;20492;-92
2022/11/09 02:02:49;;;;;;;0.10;0.10;;;12.10;99.90;;;;;;4947685;28;21131;-92
2022/11/09 02:05:20;;;;;;;0.20;0.20;;;12.00;99.90;;;;;;4945696;28;20179;-90
2022/11/09 02:07:47;;;;;;;0.10;0.10;;;12.00;99.90;;;;;;4939525;29;20457;-92
2022/11/09 02:10:22;;;;;;;0.10;0.10;;;12.00;99.90;;;;;;4947042;28;20442;-91
2022/11/09 02:12:48;;;;;;;0.10;0.10;;;12.00;99.90;;;;;;4949766;29;20588;-91
2022/11/09 02:15:14;;;;;;;0.10;0.10;;;11.90;99.90;;;;;;4947697;29;20541;-91
2022/11/09 02:17:41;;;;;;;0.10;0.10;;;11.90;99.90;;;;;;4946175;28;20457;-89
2022/11/09 02:20:13;;;;;;;0.10;0.10;;;11.90;99.90;;;;;;4946732;28;20226;-88
2022/11/09 02:22:40;;;;;;;0.10;0.10;;;11.90;99.90;;;;;;4945104;28;20442;-91
2022/11/09 02:25:07;;;;;;;0.10;0.10;;;12.00;99.90;;;;;;4942350;28;20447;-88
2022/11/09 02:27:34;;;;;;;0.10;0.10;;;11.90;99.90;;;;;;4946554;28;20446;-90
2022/11/09 02:29:59;;;;;;;0.10;0.10;;;11.90;99.90;;;;;;4950412;28;20451;-91
2022/11/09 02:32:27;;;;;;;0.10;0.10;;;11.90;99.90;;;;;;4948194;28;20456;-91
2022/11/09 02:34:53;;;;;;;0.10;0.10;;;11.90;99.90;;;;;;4941256;28;20179;-88
2022/11/09 02:37:38;;;;;;;0.10;0.10;;;11.80;99.90;;;;;;4948307;28;20489;-91
2022/11/09 02:40:09;;;;;;;0.20;0.20;;;11.80;99.90;;;;;;4949881;28;20222;-90
2022/11/09 02:42:35;;;;;;;0.13;0.13;;;11.70;99.90;;;;;;4949972;28;20446;-88
2022/11/09 02:45:00;;;;;;;0.20;0.20;;;11.70;99.90;;;;;;4951747;28;20466;-91
2022/11/09 02:47:26;;;;;;;0.20;0.20;;;11.70;99.90;;;;;;4949967;28;20650;-91
2022/11/09 02:49:51;;;;;;;0.20;0.20;;;11.70;99.90;;;;;;4957819;28;20201;-90
2022/11/09 02:52:17;;;;;;;0.20;0.20;;;11.80;99.90;;;;;;4950525;28;20538;-90
2022/11/09 02:54:43;;;;;;;0.20;0.20;;;11.70;99.90;;;;;;4946615;28;20190;-90
2022/11/09 02:57:08;;;;;;;0.10;0.10;;;11.70;99.90;;;;;;4945671;28;20191;-88
2022/11/09 02:59:34;;;;;;;0.20;0.20;;;11.80;99.90;;;;;;4957195;28;20324;-90
2022/11/09 03:01:59;;;;;;;0.10;0.10;;;11.70;99.90;;;;;;4951505;28;20274;-89
2022/11/09 03:04:25;;;;;;;0.20;0.20;;;11.80;99.90;;;;;;4955688;28;20197;-90
2022/11/09 03:06:50;;;;;;;0.20;0.20;;;11.70;99.90;;;;;;4949735;28;20558;-89
2022/11/09 03:09:17;;;;;;;0.20;0.20;;;11.80;99.90;;;;;;4949987;28;20270;-89
2022/11/09 03:11:43;;;;;;;0.20;0.20;;;11.80;99.90;;;;;;4949613;28;20978;-90
2022/11/09 03:14:09;;;;;;;0.10;0.10;;;11.80;99.90;;;;;;4953749;28;20480;-90
2022/11/09 03:16:38;;;;;;;0.00;0.00;;;11.80;99.90;;;;;;4948545;28;20710;-90
2022/11/09 03:19:04;;;;;;;0.10;0.10;;;11.70;99.90;;;;;;4950729;28;20254;-90
2022/11/09 03:21:30;;;;;;;0.10;0.10;;;11.70;99.90;;;;;;4951844;28;20523;-90
2022/11/09 03:23:55;;;;;;;0.10;0.10;;;11.70;99.90;;;;;;4944885;28;20470;-90
2022/11/09 03:26:21;;;;;;;0.20;0.20;;;11.80;99.90;;;;;;4954734;28;20187;-90
2022/11/09 03:28:46;;;;;;;0.20;0.20;;;11.70;99.90;;;;;;4950177;28;20211;-90
2022/11/09 03:31:12;;;;;;;0.20;0.20;;;11.80;99.90;;;;;;4954924;28;20218;-91
2022/11/09 03:33:38;;;;;;;0.10;0.10;;;11.80;99.90;;;;;;4953068;28;20198;-90
2022/11/09 03:36:04;;;;;;;0.20;0.20;;;11.80;99.90;;;;;;4951627;29;20447;-86
2022/11/09 03:38:30;;;;;;;0.20;0.20;;;11.80;99.90;;;;;;4950294;28;20235;-88
2022/11/09 03:40:57;;;;;;;0.20;0.20;;;11.80;99.90;;;;;;4950185;28;21082;-90
2022/11/09 03:43:23;;;;;;;0.10;0.10;;;11.80;99.90;;;;;;4949878;28;20195;-90
2022/11/09 03:45:48;;;;;;;0.20;0.20;;;11.80;99.90;;;;;;4949692;28;20996;-89
2022/11/09 03:48:14;;;;;;;0.10;0.10;;;11.80;99.90;;;;;;4952387;29;20190;-91
2022/11/09 03:50:39;;;;;;;0.10;0.10;;;11.80;99.90;;;;;;4946312;28;20201;-89
2022/11/09 03:53:07;;;;;;;0.20;0.20;;;11.80;99.90;;;;;;4949917;28;20198;-89
2022/11/09 03:55:32;;;;;;;0.20;0.20;;;11.80;99.90;;;;;;4947167;28;20229;-86
2022/11/09 03:57:58;;;;;;;0.20;0.20;;;11.80;99.90;;;;;;4943624;28;20478;-90
2022/11/09 04:00:23;;;;;;;0.20;0.20;;;11.70;99.90;;;;;;4949449;28;20230;-89
2022/11/09 04:02:49;;;;;;;0.10;0.10;;;11.80;99.90;;;;;;4951410;28;20217;-89
2022/11/09 04:05:15;;;;;;;0.20;0.20;;;11.70;99.90;;;;;;4947061;28;20282;-89
2022/11/09 04:07:49;;;;;;;0.20;0.20;;;11.70;99.90;;;;;;4947217;28;20543;-89
2022/11/09 04:10:16;;;;;;;0.20;0.20;;;11.80;99.90;;;;;;4946915;28;20190;-90
2022/11/09 04:12:41;;;;;;;0.20;0.20;;;11.70;99.90;;;;;;4949352;28;20450;-91
2022/11/09 04:15:07;;;;;;;0.20;0.20;;;11.80;99.90;;;;;;4961140;28;20562;-91
2022/11/09 04:17:33;;;;;;;0.10;0.10;;;11.70;99.90;;;;;;4954450;28;20227;-88
2022/11/09 04:19:58;;;;;;;0.20;0.20;;;11.70;99.90;;;;;;4958859;28;20540;-91
2022/11/09 04:22:24;;;;;;;0.17;0.17;;;11.80;99.90;;;;;;4949266;28;20201;-90
2022/11/09 04:24:49;;;;;;;0.20;0.20;;;11.70;99.90;;;;;;4948022;28;20195;-89
2022/11/09 04:27:15;;;;;;;0.20;0.20;;;11.70;99.90;;;;;;4943359;28;20618;-90
2022/11/09 04:29:40;;;;;;;0.20;0.20;;;11.80;99.90;;;;;;4945467;28;20195;-89
2022/11/09 04:32:06;;;;;;;0.20;0.20;;;11.90;99.90;;;;;;4949421;28;20198;-91
2022/11/09 04:34:31;;;;;;;0.20;0.20;;;11.90;99.90;;;;;;4949169;28;20613;-91
2022/11/09 04:36:57;;;;;;;0.10;0.10;;;11.90;99.90;;;;;;4950330;29;20246;-92
2022/11/09 04:39:22;;;;;;;0.13;0.13;;;11.80;99.90;;;;;;4951520;28;20602;-91
2022/11/09 04:41:48;;;;;;;0.10;0.10;;;11.90;99.90;;;;;;4961146;28;20964;-89
2022/11/09 04:44:13;;;;;;;0.10;0.10;;;11.90;99.90;;;;;;4952828;28;20272;-91
2022/11/09 04:46:39;;;;;;;0.10;0.10;;;11.90;99.90;;;;;;4946065;28;20485;-89
2022/11/09 04:49:04;;;;;;;0.10;0.10;;;11.90;99.90;;;;;;4949698;28;20237;-91
2022/11/09 04:51:30;;;;;;;0.10;0.10;;;11.90;99.90;;;;;;4944439;28;20187;-91
2022/11/09 04:53:55;;;;;;;0.10;0.10;;;11.90;99.90;;;;;;4947370;29;20195;-90
2022/11/09 04:56:21;;;;;;;0.20;0.20;;;11.80;99.90;;;;;;4947924;28;20268;-87
2022/11/09 04:58:48;;;;;;;0.20;0.20;;;11.80;99.90;;;;;;4946189;28;20882;-90
2022/11/09 05:01:15;;;;;;;0.10;0.10;;;11.90;99.90;;;;;;4946272;28;20195;-90
2022/11/09 05:03:41;;;;;;;0.10;0.10;;;11.90;99.90;;;;;;4948486;28;20454;-91
2022/11/09 05:08:55;;;;;;;0.10;0.10;;;11.80;99.90;;;;;;4960690;28;20449;-90
2022/11/09 05:11:22;;;;;;;0.20;0.20;;;11.90;99.90;;;;;;4955063;29;20461;-91
2022/11/09 05:13:48;;;;;;;0.20;0.20;;;11.80;99.90;;;;;;4948528;29;20438;-89
2022/11/09 05:16:13;;;;;;;0.20;0.20;;;11.90;99.90;;;;;;4948002;28;20457;-89
2022/11/09 05:18:39;;;;;;;0.20;0.20;;;11.80;99.90;;;;;;4992765;28;20475;-88
2022/11/09 05:21:05;;;;;;;0.20;0.20;;;11.80;99.90;;;;;;4951331;28;20545;-90
2022/11/09 05:26:15;;;;;;;0.20;0.20;;;11.70;99.90;;;;;;4949537;29;20553;-90
2022/11/09 05:28:40;;;;;;;0.20;0.20;;;11.80;99.90;;;;;;4943054;28;20553;-89
2022/11/09 05:31:06;;;;;;;0.20;0.20;;;11.90;99.90;;;;;;4939371;28;20191;-89
2022/11/09 05:33:32;;;;;;;0.20;0.20;;;11.80;99.90;;;;;;4944057;28;20531;-91
2022/11/09 05:35:58;;;;;;;0.10;0.10;;;11.80;99.90;;;;;;4943224;28;20636;-90
2022/11/09 05:38:24;;;;;;;0.20;0.20;;;11.80;99.90;;;;;;4942538;28;20239;-90
2022/11/09 05:40:50;;;;;;;0.20;0.20;;;11.80;99.90;;;;;;4949505;29;20251;-87
2022/11/09 05:43:16;;;;;;;0.20;0.20;;;11.80;99.90;;;;;;4942924;28;20470;-90
2022/11/09 05:45:42;;;;;;;0.20;0.20;;;12.00;99.90;;;;;;4946903;28;20504;-90
2022/11/09 05:48:08;;;;;;;0.20;0.20;;;12.00;99.90;;;;;;4950528;28;20186;-88
2022/11/09 05:50:34;;;;;;;0.20;0.20;;;12.10;99.90;;;;;;4952469;28;20190;-92
2022/11/09 05:53:00;;;;;;;0.20;0.20;;;12.10;99.90;;;;;;4957065;28;20511;-90
2022/11/09 05:55:27;;;;;;;0.10;0.10;;;12.20;99.90;;;;;;4948979;29;20198;-90
2022/11/09 05:57:53;;;;;;;0.10;0.10;;;12.10;99.90;;;;;;4945915;29;20450;-89
2022/11/09 06:00:19;;;;;;;0.10;0.10;;;12.10;99.90;;;;;;4947253;28;20548;-89
2022/11/09 06:02:45;;;;;;;0.10;0.10;;;12.10;99.90;;;;;;4955597;28;20447;-91
2022/11/09 06:05:10;;;;;;;0.10;0.10;;;12.10;99.90;;;;;;4937726;28;20273;-89
2022/11/09 06:07:36;;;;;;;0.20;0.20;;;12.10;99.90;;;;;;4941978;28;21802;-90
2022/11/09 06:10:02;;;;;;;0.20;0.20;;;12.10;99.90;;;;;;4945441;28;20201;-90
2022/11/09 06:12:28;;;;;;;0.20;0.20;;;12.10;99.90;;;;;;4946231;28;20237;-91
2022/11/09 06:14:53;;;;;;;0.10;0.10;;;12.00;99.90;;;;;;4946854;28;20458;-89
2022/11/09 06:17:19;;;;;;;0.20;0.20;;;12.00;99.90;;;;;;4948034;28;20619;-87
2022/11/09 06:19:44;;;;;;;0.20;0.20;;;12.00;99.90;;;;;;4948982;29;20256;-88
2022/11/09 06:22:11;;;;;;;0.20;0.20;;;12.00;99.90;;;;;;4947845;28;20511;-85
2022/11/09 06:24:36;;;;;;;0.10;0.10;;;12.00;99.90;;;;;;4948508;28;20286;-83
2022/11/09 06:27:02;;;;;;;0.20;0.20;;;12.10;99.90;;;;;;4944467;28;20569;-84
2022/11/09 06:29:28;;;;;;;0.20;0.20;;;12.20;99.90;;;;;;4944902;28;20187;-88
2022/11/09 06:31:54;;;;;;;0.20;0.20;;;12.10;99.90;;;;;;4949859;28;20187;-91
2022/11/09 06:34:20;;;;;;;0.10;0.10;;;12.10;99.90;;;;;;4940564;28;20187;-90
2022/11/09 06:36:48;;;;;;;0.20;0.20;;;12.10;99.90;;;;;;4961931;28;21035;-91
2022/11/09 06:39:14;;;;;;;0.20;0.20;;;12.10;99.90;;;;;;4932798;28;20296;-89
2022/11/09 06:41:40;;;;;;;0.20;0.20;;;12.20;99.90;;;;;;4930154;28;20446;-89
2022/11/09 06:44:05;;;;;;;0.10;0.10;;;12.20;99.90;;;;;;4930102;28;20722;-89
2022/11/09 06:46:32;;;;;;;0.20;0.20;;;12.10;99.90;;;;;;4940492;28;20330;-87
2022/11/09 06:48:57;;;;;;;0.20;0.20;;;12.20;99.90;;;;;;4953287;28;20197;-89
2022/11/09 06:51:23;;;;;;;0.17;0.17;;;12.20;99.90;;;;;;4948674;28;20446;-90
2022/11/09 06:53:49;;;;;;;0.10;0.10;;;12.20;99.90;;;;;;4954914;28;20268;-89
2022/11/09 06:56:15;;;;;;;0.20;0.20;;;12.20;99.90;;;;;;4990891;28;20183;-88
2022/11/09 06:58:40;;;;;;;0.20;0.20;;;12.20;99.90;;;;;;4946220;28;20214;-90
2022/11/09 07:01:11;;;;;;;0.20;0.20;;;12.20;99.90;;;;;;4970565;28;20206;-89
2022/11/09 07:03:36;;;;;;;0.20;0.20;;;12.20;99.90;;;;;;4948937;28;20245;-90
2022/11/09 07:06:07;;;;;;;0.13;0.13;;;12.30;99.90;;;;;;4949088;28;20461;-89
2022/11/09 07:08:33;;;;;;;0.10;0.10;;;12.30;99.90;;;;;;4947105;28;20199;-90
2022/11/09 07:11:07;;;;;;;0.20;0.20;;;12.40;99.90;;;;;;4947048;28;20541;-89
2022/11/09 07:13:33;;;;;;;0.20;0.20;;;12.50;99.90;;;;;;4943491;28;20450;-88
2022/11/09 07:15:58;;;;;;;0.10;0.10;;;12.40;99.90;;;;;;4960505;28;20456;-86
2022/11/09 07:18:24;;;;;;;0.20;0.20;;;12.50;99.90;;;;;;4953711;28;20655;-90
2022/11/09 07:20:50;;;;;;;0.10;0.10;;;12.50;99.90;;;;;;4966556;28;20302;-87
2022/11/09 07:23:15;;;;;;;0.10;0.10;;;12.40;99.90;;;;;;4953870;28;20728;-90
2022/11/09 07:25:40;;;;;;;0.20;0.20;;;12.40;99.90;;;;;;4951360;29;20684;-88
2022/11/09 07:28:08;;;;;;;0.10;0.10;;;12.40;99.90;;;;;;4944626;28;20281;-92
2022/11/09 07:30:35;;;;;;;0.10;0.10;;;12.40;99.90;;;;;;4950484;28;20219;-91
2022/11/09 07:33:01;;;;;;;0.10;0.10;;;12.40;99.90;;;;;;4948358;28;20541;-86
2022/11/09 07:35:26;;;;;;;0.10;0.10;;;12.40;99.90;;;;;;4946642;28;20610;-90
2022/11/09 07:37:52;;;;;;;0.10;0.10;;;12.50;99.90;;;;;;4949191;28;20339;-90
2022/11/09 07:40:18;;;;;;;0.20;0.20;;;12.40;99.90;;;;;;4959306;28;20234;-92
2022/11/09 07:42:44;;;;;;;0.20;0.20;;;12.40;99.90;;;;;;4951558;28;20639;-90
2022/11/09 07:45:10;;;;;;;0.10;0.10;;;12.30;99.90;;;;;;4953580;28;20541;-92
2022/11/09 07:47:36;;;;;;;0.10;0.10;;;12.40;99.90;;;;;;4942644;28;20206;-92
2022/11/09 07:50:02;;;;;;;0.10;0.10;;;12.40;99.90;;;;;;4953241;28;20187;-93
2022/11/09 07:52:27;;;;;;;0.10;0.10;;;12.50;99.90;;;;;;4950436;28;20580;-94
2022/11/09 07:54:53;;;;;;;0.20;0.20;;;12.50;99.90;;;;;;4945409;28;20538;-93
2022/11/09 07:57:18;;;;;;;0.20;0.20;;;12.60;99.90;;;;;;4951231;28;20207;-93
2022/11/09 07:59:44;;;;;;;0.10;0.10;;;12.60;99.90;;;;;;4952476;28;20281;-94
2022/11/09 08:02:09;;;;;;;0.20;0.20;;;12.60;99.90;;;;;;4949576;28;20191;-93
2022/11/09 08:04:35;;;;;;;0.10;0.10;;;12.60;99.90;;;;;;4948950;28;20199;-93
2022/11/09 08:07:00;;;;;;;0.10;0.10;;;12.60;99.90;;;;;;4961852;28;20194;-92
2022/11/09 08:09:28;;;;;;;0.20;0.20;;;12.60;99.90;;;;;;5004445;28;20538;-93
2022/11/09 08:11:54;;;;;;;0.10;0.10;;;12.60;99.90;;;;;;4935960;28;20347;-92
2022/11/09 08:14:19;;;;;;;0.10;0.10;;;12.60;99.90;;;;;;4956417;28;20545;-90
2022/11/09 08:16:45;;;;;;;0.10;0.10;;;12.80;99.90;;;;;;4958252;28;20190;-92
2022/11/09 08:19:10;;;;;;;0.10;0.10;;;12.90;99.90;;;;;;4954190;28;20230;-88
2022/11/09 08:21:36;;;;;;;0.10;0.10;;;12.90;99.90;;;;;;4955952;28;20205;-91
2022/11/09 08:24:02;;;;;;;0.10;0.10;;;12.80;99.90;;;;;;4952361;28;20221;-87
2022/11/09 08:26:28;;;;;;;0.10;0.10;;;13.00;99.90;;;;;;4949176;28;20600;-89
2022/11/09 08:28:54;;;;;;;0.10;0.10;;;13.00;99.90;;;;;;4945642;28;20541;-90
2022/11/09 08:31:20;;;;;;;0.10;0.10;;;12.90;99.90;;;;;;4953552;28;20551;-92
2022/11/09 08:33:45;;;;;;;0.10;0.10;;;12.80;99.90;;;;;;4951243;28;20540;-92
2022/11/09 08:36:13;;;;;;;0.20;0.20;;;12.80;99.90;;;;;;4946991;28;20210;-92
2022/11/09 08:38:41;;;;;;;0.20;0.20;;;12.90;99.90;;;;;;4952088;28;20360;-90
2022/11/09 08:41:07;;;;;;;0.10;0.10;;;12.90;99.90;;;;;;4950442;28;20518;-91
2022/11/09 08:43:33;;;;;;;0.10;0.10;;;12.90;99.90;;;;;;4951299;28;20450;-92
2022/11/09 08:45:59;;;;;;;0.10;0.10;;;13.00;99.90;;;;;;4947060;28;20465;-94
2022/11/09 08:48:24;;;;;;;0.10;0.10;;;13.20;99.90;;;;;;4944195;28;20202;-93
2022/11/09 08:50:55;;;;;;;0.10;0.10;;;13.50;99.90;;;;;;4948954;28;20281;-88
2022/11/09 08:53:22;;;;;;;0.10;0.10;;;13.60;99.90;;;;;;4952975;28;20214;-90
2022/11/09 08:55:48;;;;;;;0.10;0.10;;;13.50;99.90;;;;;;4946223;28;20458;-91
2022/11/09 08:58:13;;;;;;;0.10;0.10;;;13.70;99.90;;;;;;4945738;28;20446;-91
2022/11/09 09:00:39;;;;;;;0.10;0.10;;;13.70;99.90;;;;;;4951929;29;20262;-91
2022/11/09 09:03:05;;;;;;;0.10;0.10;;;13.80;99.90;;;;;;4950417;28;20663;-90
2022/11/09 09:05:32;;;;;;;0.10;0.10;;;14.00;99.90;;;;;;4949558;28;20273;-92
2022/11/09 09:07:58;;;;;;;0.10;0.10;;;13.90;99.90;;;;;;4948571;28;20827;-91
2022/11/09 09:10:24;;;;;;;0.10;0.10;;;13.90;99.90;;;;;;4947859;28;20958;-89
2022/11/09 09:12:50;;;;;;;0.10;0.10;;;13.80;99.90;;;;;;4946669;28;20461;-89
2022/11/09 09:15:15;;;;;;;0.10;0.10;;;14.00;99.90;;;;;;4946848;28;20270;-91
2022/11/09 09:17:41;;;;;;;0.10;0.10;;;14.10;99.90;;;;;;4945637;28;20202;-90
2022/11/09 09:20:06;;;;;;;0.10;0.10;;;14.30;99.90;;;;;;4954313;28;20229;-90
2022/11/09 09:22:32;;;;;;;0.10;0.10;;;14.40;99.90;;;;;;4956700;28;20187;-87
2022/11/09 09:24:58;;;;;;;0.10;0.10;;;14.40;99.90;;;;;;4953608;28;20230;-90
2022/11/09 09:27:23;;;;;;;0.10;0.10;;;14.40;99.90;;;;;;4948856;28;20182;-88
2022/11/09 09:29:49;;;;;;;0.10;0.10;;;14.50;99.90;;;;;;4949765;29;20654;-91
2022/11/09 09:32:14;;;;;;;0.10;0.10;;;14.70;99.90;;;;;;4948847;28;20191;-90
2022/11/09 09:34:40;;;;;;;0.10;0.10;;;14.70;99.90;;;;;;4932037;29;20207;-90
2022/11/09 09:37:05;;;;;;;0.10;0.10;;;14.60;99.90;;;;;;4939070;28;20527;-88
2022/11/09 09:39:31;;;;;;;0.10;0.10;;;14.60;99.90;;;;;;4951711;28;20583;-90
2022/11/09 09:42:00;;;;;;;0.10;0.10;;;14.90;99.90;;;;;;4952714;28;20269;-89
2022/11/09 09:45:14;;;;;;;0.10;0.10;;;15.30;99.90;;;;;;4949732;29;20233;-90
2022/11/09 09:47:45;;;;;;;0.10;0.10;;;15.30;99.90;;;;;;4947721;28;20462;-87
2022/11/09 09:50:19;;;;;;;0.10;0.10;;;15.30;99.90;;;;;;4952618;28;20440;-90
2022/11/09 09:52:53;;;;;;;0.10;0.10;;;15.60;99.90;;;;;;4945644;28;20438;-86
2022/11/09 09:55:41;;;;;;;0.10;0.10;;;15.50;99.90;;;;;;4962415;28;20453;-89
2022/11/09 09:58:27;;;;;;;0.10;0.10;;;15.40;99.90;;;;;;4937300;28;20441;-92
2022/11/09 10:00:58;;;;;;;0.10;0.10;;;15.50;99.90;;;;;;4946364;28;20530;-90
2022/11/09 10:03:24;;;;;;;0.10;0.10;;;15.60;99.90;;;;;;4942991;28;20434;-83
2022/11/09 10:06:04;;;;;;;0.10;0.10;;;15.50;99.90;;;;;;4946774;28;20454;-84
2022/11/09 10:08:48;;;;;;;0.10;0.10;;;15.70;99.90;;;;;;4947113;28;20519;-84
2022/11/09 10:11:46;;;;;;;0.10;0.10;;;15.90;99.90;;;;;;4941856;28;20430;-86
2022/11/09 10:14:49;;;;;;;0.10;0.10;;;15.70;99.90;;;;;;4951378;28;20459;-83
2022/11/09 10:17:35;;;;;;;0.10;0.10;;;15.60;99.90;;;;;;4941098;28;20497;-83
2022/11/09 10:20:25;;;;;;;0.10;0.10;;;15.90;99.90;;;;;;4949800;28;20894;-85
2022/11/09 10:23:12;;;;;;;0.10;0.10;;;15.60;99.90;;;;;;4942451;28;20439;-85
2022/11/09 10:25:38;;;;;;;0.10;0.10;;;15.80;99.90;;;;;;4941412;28;20446;-86
2022/11/09 10:28:10;;;;;;;0.10;0.10;;;15.90;99.90;;;;;;4931402;28;20477;-83
2022/11/09 10:30:36;;;;;;;0.10;0.10;;;16.70;99.90;;;;;;4940757;28;20442;-84
2022/11/09 10:33:15;;;;;;;0.10;0.10;;;16.10;99.90;;;;;;4942740;28;20445;-83
2022/11/09 10:35:52;;;;;;;0.10;0.10;;;16.00;99.90;;;;;;4942289;28;20450;-85
2022/11/09 10:38:24;;;;;;;0.10;0.10;;;15.90;99.90;;;;;;4943859;28;20481;-84
2022/11/09 10:41:26;;;;;;;0.10;0.10;;;16.20;99.90;;;;;;4946443;28;20517;-83
2022/11/09 10:43:51;;;;;;;0.10;0.10;;;15.80;99.90;;;;;;4939707;28;20446;-83
2022/11/09 10:46:17;;;;;;;0.10;0.10;;;15.40;99.90;;;;;;4950221;28;20821;-84
2022/11/09 10:48:42;;;;;;;0.10;0.10;;;15.10;99.90;;;;;;4945821;28;20190;-83
2022/11/09 10:51:31;;;;;;;0.10;0.10;;;14.80;99.90;;;;;;4945845;28;20199;-83
2022/11/09 10:54:27;;;;;;;0.10;0.10;;;14.60;99.90;;;;;;4944487;28;20187;-83
2022/11/09 10:57:15;;;;;;;0.10;0.10;;;14.60;99.90;;;;;;4944946;28;20998;-83
2022/11/09 10:59:52;;;;;;;0.10;0.10;;;14.60;99.90;;;;;;4956094;28;20487;-82
2022/11/09 11:02:40;;;;;;;0.10;0.10;;;14.50;99.90;;;;;;4949474;28;20449;-82
2022/11/09 11:05:05;;;;;;;0.10;0.10;;;14.50;99.90;;;;;;4949378;28;20522;-82
2022/11/09 11:07:32;;;;;;;0.10;0.10;;;14.60;99.90;;;;;;4952714;28;20590;-83
2022/11/09 11:10:14;;;;;;;0.10;0.10;;;15.60;99.90;;;;;;4946752;28;20199;-82
2022/11/09 11:12:41;;;;;;;0.10;0.10;;;16.20;99.90;;;;;;4947138;28;20450;-82
2022/11/09 11:15:27;;;;;;;0.10;0.10;;;16.60;99.90;;;;;;4936844;28;20553;-80
2022/11/09 11:18:20;;;;;;;0.10;0.10;;;16.40;99.90;;;;;;4953326;28;20450;-83
2022/11/09 11:20:46;;;;;;;0.10;0.10;;;15.90;99.90;;;;;;4955047;28;20478;-82
2022/11/09 11:23:15;;;;;;;0.10;0.10;;;16.10;99.90;;;;;;4943140;28;20773;-82
2022/11/09 11:25:52;;;;;;;0.10;0.10;;;16.00;99.90;;;;;;4948850;28;20781;-82
2022/11/09 11:28:41;;;;;;;0.10;0.10;;;16.30;99.90;;;;;;4945326;28;20545;-83
2022/11/09 11:31:15;;;;;;;0.10;0.10;;;16.00;99.90;;;;;;4945000;28;20450;-83
2022/11/09 11:33:41;;;;;;;0.10;0.10;;;15.40;99.90;;;;;;4949824;28;20449;-84
2022/11/09 11:36:32;;;;;;;0.10;0.10;;;15.20;99.90;;;;;;4945505;28;20568;-83
2022/11/09 11:39:12;;;;;;;0.10;0.10;;;16.60;99.90;;;;;;4944882;28;20985;-83
2022/11/09 11:41:49;;;;;;;0.10;0.10;;;16.30;99.90;;;;;;4947514;28;20490;-83
2022/11/09 11:44:40;;;;;;;0.10;0.10;;;15.90;99.90;;;;;;4950719;28;20964;-84
2022/11/09 11:47:24;;;;;;;0.10;0.10;;;15.70;99.90;;;;;;4948410;28;20962;-84
2022/11/09 11:50:01;;;;;;;0.10;0.10;;;15.90;99.90;;;;;;4954381;28;20860;-82
2022/11/09 11:53:06;;;;;;;0.10;0.10;;;15.70;99.90;;;;;;4942986;28;20486;-83
2022/11/09 11:55:44;;;;;;;0.10;0.10;;;15.40;99.90;;;;;;4940918;28;20447;-85
2022/11/09 11:58:36;;;;;;;0.10;0.10;;;16.20;99.90;;;;;;4940426;28;20458;-83
2022/11/09 12:01:23;;;;;;;0.10;0.10;;;16.90;99.90;;;;;;4944139;28;20462;-85
2022/11/09 12:04:00;;;;;;;0.10;0.10;;;16.70;99.90;;;;;;4943525;28;20450;-86
2022/11/09 12:06:48;;;;;;;0.10;0.10;;;16.60;99.90;;;;;;4940008;28;20480;-86
2022/11/09 12:09:51;;;;;;;0.10;0.10;;;17.30;99.90;;;;;;4950297;28;20427;-85
2022/11/09 12:12:49;;;;;;;0.10;0.10;;;18.00;99.90;;;;;;4953470;28;20445;-87
2022/11/09 12:15:24;;;;;;;0.10;0.10;;;18.20;99.90;;;;;;4962008;28;20444;-86
2022/11/09 12:17:59;;;;;;;0.10;0.10;;;18.20;99.90;;;;;;4948029;28;20450;-86
2022/11/09 12:20:25;;;;;;;0.10;0.10;;;18.40;99.90;;;;;;4944023;28;21068;-86
2022/11/09 12:23:10;;;;;;;0.10;0.10;;;18.30;99.90;;;;;;4948110;28;20450;-87
2022/11/09 12:25:45;;;;;;;0.10;0.10;;;19.00;99.90;;;;;;4950398;28;20573;-86
2022/11/09 12:28:26;;;;;;;0.10;0.00;;;19.10;99.90;;;;;;4948494;28;20442;-87
2022/11/09 12:31:20;;;;;;;0.10;0.10;;;18.40;99.90;;;;;;4964169;28;20512;-86
2022/11/09 12:33:53;;;;;;;0.10;0.10;;;17.10;99.90;;;;;;4951512;28;20457;-84
2022/11/09 12:36:24;;;;;;;0.10;0.10;;;16.90;99.90;;;;;;4948095;28;20450;-85
2022/11/09 12:38:53;;;;;;;0.10;0.10;;;16.60;99.90;;;;;;4947306;28;20481;-84
2022/11/09 12:41:22;;;;;;;0.10;0.10;;;16.10;99.90;;;;;;4951141;28;20450;-84
2022/11/09 12:44:01;;;;;;;0.10;0.10;;;15.80;99.90;;;;;;4936884;28;20814;-83
2022/11/09 12:46:34;;;;;;;0.10;0.10;;;15.60;99.90;;;;;;4951813;28;20528;-83
2022/11/09 12:49:03;;;;;;;0.10;0.10;;;15.40;99.90;;;;;;4942814;28;20454;-82
2022/11/09 12:51:29;;;;;;;0.10;0.10;;;16.90;99.90;;;;;;4941478;28;20446;-85
2022/11/09 12:53:56;;;;;;;0.10;0.10;;;17.60;99.90;;;;;;4947166;28;20477;-85
2022/11/09 12:56:28;;;;;;;0.10;0.10;;;18.60;99.90;;;;;;4945302;28;20946;-86
2022/11/09 12:59:25;;;;;;;0.10;0.10;;;19.90;99.90;;;;;;4946706;28;20966;-86
2022/11/09 13:01:59;;;;;;;0.10;0.00;;;20.50;99.90;;;;;;4938487;28;20511;-86
2022/11/09 13:04:25;;;;;;;0.10;0.10;;;19.40;99.90;;;;;;4938263;28;20466;-87
2022/11/09 13:07:02;;;;;;;0.10;0.10;;;18.30;99.90;;;;;;4942826;28;20462;-85